sensor_id;sensor_type;location;lat;lon;timestamp;temperature;humidity
6256;DHT22;3161;48.794;9.784;2022-12-28T00:01:20;1.10;99.90
6256;DHT22;3161;48.794;9.784;2022-12-28T00:03:48;1.10;99.90
6256;DHT22;3161;48.794;9.784;2022-12-28T00:06:16;1.10;99.90
6256;DHT22;3161;48.794;9.784;2022-12-28T00:08:44;1.20;99.90
6256;DHT22;3161;48.794;9.784;2022-12-28T00:11:14;1.20;99.90
6256;DHT22;3161;48.794;9.784;2022-12-28T00:13:42;1.20;99.90
6256;DHT22;3161;48.794;9.784;2022-12-28T00:16:14;1.20;99.90
6256;DHT22;3161;48.794;9.784;2022-12-28T00:18:40;1.20;99.90
6256;DHT22;3161;48.794;9.784;2022-12-28T00:21:08;1.20;99.90
6256;DHT22;3161;48.794;9.784;2022-12-28T00:23:35;1.20;99.90
6256;DHT22;3161;48.794;9.784;2022-12-28T00:26:06;1.20;99.90
6256;DHT22;3161;48.794;9.784;2022-12-28T00:28:34;1.20;99.90
6256;DHT22;3161;48.794;9.784;2022-12-28T00:31:02;1.20;99.90
6256;DHT22;3161;48.794;9.784;2022-12-28T00:33:30;1.20;99.90
6256;DHT22;3161;48.794;9.784;2022-12-28T00:35:59;1.20;99.90
6256;DHT22;3161;48.794;9.784;2022-12-28T00:38:29;1.20;99.90
6256;DHT22;3161;48.794;9.784;2022-12-28T00:41:00;1.20;99.90
6256;DHT22;3161;48.794;9.784;2022-12-28T00:43:28;1.20;99.90
6256;DHT22;3161;48.794;9.784;2022-12-28T00:45:55;1.20;99.90
6256;DHT22;3161;48.794;9.784;2022-12-28T00:48:22;1.20;99.90
6256;DHT22;3161;48.794;9.784;2022-12-28T00:50:50;1.20;99.90
6256;DHT22;3161;48.794;9.784;2022-12-28T00:53:18;1.20;99.90
6256;DHT22;3161;48.794;9.784;2022-12-28T00:55:45;1.20;99.90
6256;DHT22;3161;48.794;9.784;2022-12-28T00:58:13;1.20;99.90
6256;DHT22;3161;48.794;9.784;2022-12-28T01:00:40;1.20;99.90
6256;DHT22;3161;48.794;9.784;2022-12-28T01:03:08;1.30;99.90
6256;DHT22;3161;48.794;9.784;2022-12-28T01:05:37;1.30;99.90
6256;DHT22;3161;48.794;9.784;2022-12-28T01:08:05;1.30;99.90
6256;DHT22;3161;48.794;9.784;2022-12-28T01:10:33;1.30;99.90
6256;DHT22;3161;48.794;9.784;2022-12-28T01:13:00;1.30;99.90
6256;DHT22;3161;48.794;9.784;2022-12-28T01:15:28;1.30;99.90
6256;DHT22;3161;48.794;9.784;2022-12-28T01:17:55;1.30;99.90
6256;DHT22;3161;48.794;9.784;2022-12-28T01:20:23;1.30;99.90
6256;DHT22;3161;48.794;9.784;2022-12-28T01:22:50;1.30;99.90
6256;DHT22;3161;48.794;9.784;2022-12-28T01:25:17;1.40;99.90
6256;DHT22;3161;48.794;9.784;2022-12-28T01:27:45;1.40;99.90
6256;DHT22;3161;48.794;9.784;2022-12-28T01:30:13;1.40;99.90
6256;DHT22;3161;48.794;9.784;2022-12-28T01:32:41;1.40;99.90
6256;DHT22;3161;48.794;9.784;2022-12-28T01:35:09;1.40;99.90
6256;DHT22;3161;48.794;9.784;2022-12-28T01:37:36;1.40;99.90
6256;DHT22;3161;48.794;9.784;2022-12-28T01:40:05;1.30;99.90
6256;DHT22;3161;48.794;9.784;2022-12-28T01:42:32;1.30;99.90
6256;DHT22;3161;48.794;9.784;2022-12-28T01:45:12;1.30;99.90
6256;DHT22;3161;48.794;9.784;2022-12-28T01:47:33;1.30;99.90
6256;DHT22;3161;48.794;9.784;2022-12-28T01:50:15;1.30;99.90
6256;DHT22;3161;48.794;9.784;2022-12-28T01:52:54;1.30;99.90
6256;DHT22;3161;48.794;9.784;2022-12-28T01:55:27;1.30;99.90
6256;DHT22;3161;48.794;9.784;2022-12-28T01:58:14;1.30;99.90
6256;DHT22;3161;48.794;9.784;2022-12-28T02:00:42;1.30;99.90
6256;DHT22;3161;48.794;9.784;2022-12-28T02:03:22;1.30;99.90
6256;DHT22;3161;48.794;9.784;2022-12-28T02:05:48;1.30;99.90
6256;DHT22;3161;48.794;9.784;2022-12-28T02:08:22;1.20;99.90
6256;DHT22;3161;48.794;9.784;2022-12-28T02:10:51;1.20;99.90
6256;DHT22;3161;48.794;9.784;2022-12-28T02:13:20;1.20;99.90
6256;DHT22;3161;48.794;9.784;2022-12-28T02:15:49;1.20;99.90
6256;DHT22;3161;48.794;9.784;2022-12-28T02:18:18;1.20;99.90
6256;DHT22;3161;48.794;9.784;2022-12-28T02:29:51;1.20;99.90
6256;DHT22;3161;48.794;9.784;2022-12-28T02:32:23;1.20;99.90
6256;DHT22;3161;48.794;9.784;2022-12-28T02:40:12;1.30;99.90
6256;DHT22;3161;48.794;9.784;2022-12-28T02:42:41;1.30;99.90
6256;DHT22;3161;48.794;9.784;2022-12-28T02:45:29;1.30;99.90
6256;DHT22;3161;48.794;9.784;2022-12-28T02:48:13;1.30;99.90
6256;DHT22;3161;48.794;9.784;2022-12-28T03:00:19;1.40;99.90
6256;DHT22;3161;48.794;9.784;2022-12-28T03:03:10;1.50;99.90
6256;DHT22;3161;48.794;9.784;2022-12-28T03:08:56;1.50;99.90
6256;DHT22;3161;48.794;9.784;2022-12-28T03:11:40;1.60;99.90
6256;DHT22;3161;48.794;9.784;2022-12-28T03:14:15;1.60;99.90
6256;DHT22;3161;48.794;9.784;2022-12-28T03:16:44;1.60;99.90
6256;DHT22;3161;48.794;9.784;2022-12-28T03:19:38;1.70;99.90
6256;DHT22;3161;48.794;9.784;2022-12-28T03:22:24;1.70;99.90
6256;DHT22;3161;48.794;9.784;2022-12-28T03:25:13;1.80;99.90
6256;DHT22;3161;48.794;9.784;2022-12-28T03:28:01;1.80;99.90
6256;DHT22;3161;48.794;9.784;2022-12-28T03:30:50;1.80;99.90
6256;DHT22;3161;48.794;9.784;2022-12-28T03:33:43;1.80;99.90
6256;DHT22;3161;48.794;9.784;2022-12-28T03:39:09;1.80;99.90
6256;DHT22;3161;48.794;9.784;2022-12-28T03:41:33;1.80;99.90
6256;DHT22;3161;48.794;9.784;2022-12-28T03:43:59;1.70;99.90
6256;DHT22;3161;48.794;9.784;2022-12-28T03:46:38;1.80;99.90
6256;DHT22;3161;48.794;9.784;2022-12-28T03:49:01;1.70;99.90
6256;DHT22;3161;48.794;9.784;2022-12-28T03:51:30;1.70;99.90
6256;DHT22;3161;48.794;9.784;2022-12-28T03:53:58;1.80;99.90
6256;DHT22;3161;48.794;9.784;2022-12-28T03:56:27;1.80;99.90
6256;DHT22;3161;48.794;9.784;2022-12-28T03:58:55;1.80;99.90
6256;DHT22;3161;48.794;9.784;2022-12-28T04:01:23;1.80;99.90
6256;DHT22;3161;48.794;9.784;2022-12-28T04:03:51;1.90;99.90
6256;DHT22;3161;48.794;9.784;2022-12-28T04:06:19;1.90;99.90
6256;DHT22;3161;48.794;9.784;2022-12-28T04:08:47;1.90;99.90
6256;DHT22;3161;48.794;9.784;2022-12-28T04:11:15;2.00;99.90
6256;DHT22;3161;48.794;9.784;2022-12-28T04:13:42;1.90;99.90
6256;DHT22;3161;48.794;9.784;2022-12-28T04:16:12;2.00;99.90
6256;DHT22;3161;48.794;9.784;2022-12-28T04:18:40;2.00;99.90
6256;DHT22;3161;48.794;9.784;2022-12-28T04:21:10;2.00;99.90
6256;DHT22;3161;48.794;9.784;2022-12-28T04:23:37;2.10;99.90
6256;DHT22;3161;48.794;9.784;2022-12-28T04:26:09;2.10;99.90
6256;DHT22;3161;48.794;9.784;2022-12-28T04:28:37;2.10;99.90
6256;DHT22;3161;48.794;9.784;2022-12-28T04:31:10;2.10;99.90
6256;DHT22;3161;48.794;9.784;2022-12-28T04:33:39;2.10;99.90
6256;DHT22;3161;48.794;9.784;2022-12-28T04:36:10;2.10;99.90
6256;DHT22;3161;48.794;9.784;2022-12-28T04:38:37;2.10;99.90
6256;DHT22;3161;48.794;9.784;2022-12-28T04:41:06;2.10;99.90
6256;DHT22;3161;48.794;9.784;2022-12-28T04:43:34;2.10;99.90
6256;DHT22;3161;48.794;9.784;2022-12-28T04:46:04;2.10;99.90
6256;DHT22;3161;48.794;9.784;2022-12-28T04:48:33;2.10;99.90
6256;DHT22;3161;48.794;9.784;2022-12-28T04:51:09;2.10;99.90
6256;DHT22;3161;48.794;9.784;2022-12-28T04:53:38;2.10;99.90
6256;DHT22;3161;48.794;9.784;2022-12-28T04:56:08;2.20;99.90
6256;DHT22;3161;48.794;9.784;2022-12-28T04:58:36;2.20;99.90
6256;DHT22;3161;48.794;9.784;2022-12-28T05:01:06;2.20;99.90
6256;DHT22;3161;48.794;9.784;2022-12-28T05:03:35;2.20;99.90
6256;DHT22;3161;48.794;9.784;2022-12-28T05:06:04;2.30;99.90
6256;DHT22;3161;48.794;9.784;2022-12-28T05:08:34;2.20;99.90
6256;DHT22;3161;48.794;9.784;2022-12-28T05:11:03;2.30;99.90
6256;DHT22;3161;48.794;9.784;2022-12-28T05:13:31;2.30;99.90
6256;DHT22;3161;48.794;9.784;2022-12-28T05:16:01;2.30;99.90
6256;DHT22;3161;48.794;9.784;2022-12-28T05:18:29;2.30;99.90
6256;DHT22;3161;48.794;9.784;2022-12-28T05:21:15;2.30;99.90
6256;DHT22;3161;48.794;9.784;2022-12-28T05:23:42;2.30;99.90
6256;DHT22;3161;48.794;9.784;2022-12-28T05:26:15;2.30;99.90
6256;DHT22;3161;48.794;9.784;2022-12-28T05:28:43;2.40;99.90
6256;DHT22;3161;48.794;9.784;2022-12-28T05:31:15;2.30;99.90
6256;DHT22;3161;48.794;9.784;2022-12-28T05:33:42;2.30;99.90
6256;DHT22;3161;48.794;9.784;2022-12-28T05:36:17;2.30;99.90
6256;DHT22;3161;48.794;9.784;2022-12-28T05:38:40;2.40;99.90
6256;DHT22;3161;48.794;9.784;2022-12-28T05:41:26;2.40;99.90
6256;DHT22;3161;48.794;9.784;2022-12-28T05:43:50;2.40;99.90
6256;DHT22;3161;48.794;9.784;2022-12-28T05:46:26;2.40;99.90
6256;DHT22;3161;48.794;9.784;2022-12-28T05:48:54;2.40;99.90
6256;DHT22;3161;48.794;9.784;2022-12-28T05:51:24;2.40;99.90
6256;DHT22;3161;48.794;9.784;2022-12-28T05:53:52;2.40;99.90
6256;DHT22;3161;48.794;9.784;2022-12-28T05:56:22;2.40;99.90
6256;DHT22;3161;48.794;9.784;2022-12-28T05:58:58;2.40;99.90
6256;DHT22;3161;48.794;9.784;2022-12-28T06:01:28;2.50;99.90
6256;DHT22;3161;48.794;9.784;2022-12-28T06:04:01;2.50;99.90
6256;DHT22;3161;48.794;9.784;2022-12-28T06:06:30;2.50;99.90
6256;DHT22;3161;48.794;9.784;2022-12-28T06:08:58;2.50;99.90
6256;DHT22;3161;48.794;9.784;2022-12-28T06:11:28;2.50;99.90
6256;DHT22;3161;48.794;9.784;2022-12-28T06:13:57;2.50;99.90
6256;DHT22;3161;48.794;9.784;2022-12-28T06:16:28;2.50;99.90
6256;DHT22;3161;48.794;9.784;2022-12-28T06:18:56;2.50;99.90
6256;DHT22;3161;48.794;9.784;2022-12-28T06:21:27;2.50;99.90
6256;DHT22;3161;48.794;9.784;2022-12-28T06:23:56;2.50;99.90
6256;DHT22;3161;48.794;9.784;2022-12-28T06:26:26;2.50;99.90
6256;DHT22;3161;48.794;9.784;2022-12-28T06:28:54;2.50;99.90
6256;DHT22;3161;48.794;9.784;2022-12-28T06:31:24;2.50;99.90
6256;DHT22;3161;48.794;9.784;2022-12-28T06:33:53;2.50;99.90
6256;DHT22;3161;48.794;9.784;2022-12-28T06:36:24;2.50;99.90
6256;DHT22;3161;48.794;9.784;2022-12-28T06:38:53;2.60;99.90
6256;DHT22;3161;48.794;9.784;2022-12-28T06:41:22;2.60;99.90
6256;DHT22;3161;48.794;9.784;2022-12-28T06:43:50;2.50;99.90
6256;DHT22;3161;48.794;9.784;2022-12-28T06:46:20;2.50;99.90
6256;DHT22;3161;48.794;9.784;2022-12-28T06:51:37;2.60;99.90
6256;DHT22;3161;48.794;9.784;2022-12-28T06:54:07;2.50;99.90
6256;DHT22;3161;48.794;9.784;2022-12-28T06:56:35;2.50;99.90
6256;DHT22;3161;48.794;9.784;2022-12-28T06:59:03;2.50;99.90
6256;DHT22;3161;48.794;9.784;2022-12-28T07:01:36;2.50;99.90
6256;DHT22;3161;48.794;9.784;2022-12-28T07:04:06;2.50;99.90
6256;DHT22;3161;48.794;9.784;2022-12-28T07:06:37;2.50;99.90
6256;DHT22;3161;48.794;9.784;2022-12-28T07:09:08;2.50;99.90
6256;DHT22;3161;48.794;9.784;2022-12-28T07:11:36;2.50;99.90
6256;DHT22;3161;48.794;9.784;2022-12-28T07:14:04;2.50;99.90
6256;DHT22;3161;48.794;9.784;2022-12-28T07:16:31;2.60;99.90
6256;DHT22;3161;48.794;9.784;2022-12-28T07:18:59;2.60;99.90
6256;DHT22;3161;48.794;9.784;2022-12-28T07:21:29;2.60;99.90
6256;DHT22;3161;48.794;9.784;2022-12-28T07:23:57;2.60;99.90
6256;DHT22;3161;48.794;9.784;2022-12-28T07:26:28;2.60;99.90
6256;DHT22;3161;48.794;9.784;2022-12-28T07:28:57;2.60;99.90
6256;DHT22;3161;48.794;9.784;2022-12-28T07:31:31;2.70;99.90
6256;DHT22;3161;48.794;9.784;2022-12-28T07:34:00;2.70;99.90
6256;DHT22;3161;48.794;9.784;2022-12-28T07:36:29;2.70;99.90
6256;DHT22;3161;48.794;9.784;2022-12-28T07:41:51;2.70;99.90
6256;DHT22;3161;48.794;9.784;2022-12-28T07:44:19;2.70;99.90
6256;DHT22;3161;48.794;9.784;2022-12-28T07:46:46;2.70;99.90
6256;DHT22;3161;48.794;9.784;2022-12-28T07:49:14;2.70;99.90
6256;DHT22;3161;48.794;9.784;2022-12-28T07:51:41;2.80;99.90
6256;DHT22;3161;48.794;9.784;2022-12-28T07:54:09;2.80;99.90
6256;DHT22;3161;48.794;9.784;2022-12-28T07:56:36;2.80;99.90
6256;DHT22;3161;48.794;9.784;2022-12-28T07:59:05;2.90;99.90
6256;DHT22;3161;48.794;9.784;2022-12-28T08:01:35;2.90;99.90
6256;DHT22;3161;48.794;9.784;2022-12-28T08:04:05;2.90;99.90
6256;DHT22;3161;48.794;9.784;2022-12-28T08:06:35;2.90;99.90
6256;DHT22;3161;48.794;9.784;2022-12-28T08:09:04;3.00;99.90
6256;DHT22;3161;48.794;9.784;2022-12-28T08:11:35;3.00;99.90
6256;DHT22;3161;48.794;9.784;2022-12-28T08:14:04;3.00;99.90
6256;DHT22;3161;48.794;9.784;2022-12-28T08:16:35;3.10;99.90
6256;DHT22;3161;48.794;9.784;2022-12-28T08:19:03;3.10;99.90
6256;DHT22;3161;48.794;9.784;2022-12-28T08:21:34;3.10;99.90
6256;DHT22;3161;48.794;9.784;2022-12-28T08:24:03;3.10;99.90
6256;DHT22;3161;48.794;9.784;2022-12-28T08:26:33;3.20;99.90
6256;DHT22;3161;48.794;9.784;2022-12-28T08:29:04;3.20;99.90
6256;DHT22;3161;48.794;9.784;2022-12-28T08:31:37;3.20;99.90
6256;DHT22;3161;48.794;9.784;2022-12-28T08:34:06;3.30;99.90
6256;DHT22;3161;48.794;9.784;2022-12-28T08:36:35;3.30;99.90
6256;DHT22;3161;48.794;9.784;2022-12-28T08:39:03;3.40;99.90
6256;DHT22;3161;48.794;9.784;2022-12-28T08:41:31;3.40;99.90
6256;DHT22;3161;48.794;9.784;2022-12-28T08:43:59;3.50;99.90
6256;DHT22;3161;48.794;9.784;2022-12-28T08:46:31;3.50;99.90
6256;DHT22;3161;48.794;9.784;2022-12-28T08:49:00;3.50;99.90
6256;DHT22;3161;48.794;9.784;2022-12-28T08:51:35;3.50;99.90
6256;DHT22;3161;48.794;9.784;2022-12-28T08:53:59;3.60;99.90
6256;DHT22;3161;48.794;9.784;2022-12-28T08:56:29;3.60;99.90
6256;DHT22;3161;48.794;9.784;2022-12-28T08:58:58;3.70;99.90
6256;DHT22;3161;48.794;9.784;2022-12-28T09:01:28;3.70;99.90
6256;DHT22;3161;48.794;9.784;2022-12-28T09:03:58;3.70;99.90
6256;DHT22;3161;48.794;9.784;2022-12-28T09:06:31;3.80;99.90
6256;DHT22;3161;48.794;9.784;2022-12-28T09:09:00;3.90;99.90
6256;DHT22;3161;48.794;9.784;2022-12-28T09:11:27;3.90;99.90
6256;DHT22;3161;48.794;9.784;2022-12-28T09:13:55;4.00;99.90
6256;DHT22;3161;48.794;9.784;2022-12-28T09:16:25;4.10;99.90
6256;DHT22;3161;48.794;9.784;2022-12-28T09:18:55;4.20;99.90
6256;DHT22;3161;48.794;9.784;2022-12-28T09:21:25;4.30;99.90
6256;DHT22;3161;48.794;9.784;2022-12-28T09:23:54;4.40;99.90
6256;DHT22;3161;48.794;9.784;2022-12-28T09:26:23;4.50;99.90
6256;DHT22;3161;48.794;9.784;2022-12-28T09:28:59;4.60;99.90
6256;DHT22;3161;48.794;9.784;2022-12-28T09:31:24;4.70;99.90
6256;DHT22;3161;48.794;9.784;2022-12-28T09:33:52;4.80;99.90
6256;DHT22;3161;48.794;9.784;2022-12-28T09:36:37;4.90;99.90
6256;DHT22;3161;48.794;9.784;2022-12-28T09:39:07;4.90;99.90
6256;DHT22;3161;48.794;9.784;2022-12-28T09:41:49;5.10;99.90
6256;DHT22;3161;48.794;9.784;2022-12-28T09:44:37;5.20;99.90
6256;DHT22;3161;48.794;9.784;2022-12-28T09:55:39;5.50;99.90
6256;DHT22;3161;48.794;9.784;2022-12-28T09:58:05;5.70;99.90
6256;DHT22;3161;48.794;9.784;2022-12-28T10:00:40;5.80;99.90
6256;DHT22;3161;48.794;9.784;2022-12-28T10:03:16;5.90;99.90
6256;DHT22;3161;48.794;9.784;2022-12-28T10:05:43;6.10;99.90
6256;DHT22;3161;48.794;9.784;2022-12-28T10:08:16;6.20;99.90
6256;DHT22;3161;48.794;9.784;2022-12-28T10:10:45;6.40;99.90
6256;DHT22;3161;48.794;9.784;2022-12-28T10:13:34;6.50;99.90
6256;DHT22;3161;48.794;9.784;2022-12-28T10:15:57;6.60;99.90
6256;DHT22;3161;48.794;9.784;2022-12-28T10:18:26;6.80;99.90
6256;DHT22;3161;48.794;9.784;2022-12-28T10:20:55;7.00;99.90
6256;DHT22;3161;48.794;9.784;2022-12-28T10:23:25;7.10;99.90
6256;DHT22;3161;48.794;9.784;2022-12-28T10:25:55;7.30;99.90
6256;DHT22;3161;48.794;9.784;2022-12-28T10:28:27;7.40;99.90
6256;DHT22;3161;48.794;9.784;2022-12-28T10:31:10;7.50;99.90
6256;DHT22;3161;48.794;9.784;2022-12-28T10:33:41;7.70;99.90
6256;DHT22;3161;48.794;9.784;2022-12-28T10:36:09;7.80;99.90
6256;DHT22;3161;48.794;9.784;2022-12-28T10:38:34;8.00;99.90
6256;DHT22;3161;48.794;9.784;2022-12-28T10:41:10;8.10;99.90
6256;DHT22;3161;48.794;9.784;2022-12-28T10:43:38;8.20;99.90
6256;DHT22;3161;48.794;9.784;2022-12-28T10:46:13;8.30;99.90
6256;DHT22;3161;48.794;9.784;2022-12-28T10:48:37;8.40;99.90
6256;DHT22;3161;48.794;9.784;2022-12-28T10:51:17;8.60;99.90
6256;DHT22;3161;48.794;9.784;2022-12-28T10:53:48;8.70;99.90
6256;DHT22;3161;48.794;9.784;2022-12-28T10:56:24;8.90;99.90
6256;DHT22;3161;48.794;9.784;2022-12-28T11:01:42;9.30;99.90
6256;DHT22;3161;48.794;9.784;2022-12-28T11:04:20;9.40;99.90
6256;DHT22;3161;48.794;9.784;2022-12-28T11:09:33;9.70;99.90
6256;DHT22;3161;48.794;9.784;2022-12-28T11:12:24;9.90;99.90
6256;DHT22;3161;48.794;9.784;2022-12-28T11:14:54;10.00;99.90
6256;DHT22;3161;48.794;9.784;2022-12-28T11:17:28;10.10;99.90
6256;DHT22;3161;48.794;9.784;2022-12-28T11:19:55;10.10;99.90
6256;DHT22;3161;48.794;9.784;2022-12-28T11:22:25;10.20;99.90
6256;DHT22;3161;48.794;9.784;2022-12-28T11:24:54;10.30;99.90
6256;DHT22;3161;48.794;9.784;2022-12-28T11:27:23;10.40;99.90
6256;DHT22;3161;48.794;9.784;2022-12-28T11:29:52;10.50;99.90
6256;DHT22;3161;48.794;9.784;2022-12-28T11:32:41;10.70;99.90
6256;DHT22;3161;48.794;9.784;2022-12-28T11:35:06;10.80;99.90
6256;DHT22;3161;48.794;9.784;2022-12-28T11:37:35;10.90;99.90
6256;DHT22;3161;48.794;9.784;2022-12-28T11:40:03;11.00;99.90
6256;DHT22;3161;48.794;9.784;2022-12-28T11:45:11;11.30;99.90
6256;DHT22;3161;48.794;9.784;2022-12-28T11:47:34;11.30;99.90
6256;DHT22;3161;48.794;9.784;2022-12-28T11:53:38;11.40;99.90
6256;DHT22;3161;48.794;9.784;2022-12-28T12:01:40;11.20;99.90
6256;DHT22;3161;48.794;9.784;2022-12-28T12:11:55;11.50;99.90
6256;DHT22;3161;48.794;9.784;2022-12-28T12:14:31;11.50;99.90
6256;DHT22;3161;48.794;9.784;2022-12-28T12:17:10;11.50;99.90
6256;DHT22;3161;48.794;9.784;2022-12-28T12:19:33;11.50;99.90
6256;DHT22;3161;48.794;9.784;2022-12-28T12:22:13;11.50;99.90
6256;DHT22;3161;48.794;9.784;2022-12-28T12:24:55;11.60;99.90
6256;DHT22;3161;48.794;9.784;2022-12-28T12:27:44;11.60;99.90
6256;DHT22;3161;48.794;9.784;2022-12-28T12:30:14;11.60;99.90
6256;DHT22;3161;48.794;9.784;2022-12-28T12:32:45;11.60;99.90
6256;DHT22;3161;48.794;9.784;2022-12-28T12:35:16;11.50;99.90
6256;DHT22;3161;48.794;9.784;2022-12-28T12:41:00;11.30;99.90
6256;DHT22;3161;48.794;9.784;2022-12-28T12:43:46;11.30;99.90
6256;DHT22;3161;48.794;9.784;2022-12-28T12:46:21;11.10;99.90
6256;DHT22;3161;48.794;9.784;2022-12-28T12:52:31;11.00;99.90
6256;DHT22;3161;48.794;9.784;2022-12-28T12:57:11;10.90;99.90
6256;DHT22;3161;48.794;9.784;2022-12-28T13:00:02;10.90;99.90
6256;DHT22;3161;48.794;9.784;2022-12-28T13:02:39;10.90;99.90
6256;DHT22;3161;48.794;9.784;2022-12-28T13:05:04;10.90;99.90
6256;DHT22;3161;48.794;9.784;2022-12-28T13:07:33;11.00;99.90
6256;DHT22;3161;48.794;9.784;2022-12-28T13:10:02;11.10;99.90
6256;DHT22;3161;48.794;9.784;2022-12-28T13:12:30;11.10;99.90
6256;DHT22;3161;48.794;9.784;2022-12-28T13:15:02;11.30;99.90
6256;DHT22;3161;48.794;9.784;2022-12-28T13:17:30;11.30;99.90
6256;DHT22;3161;48.794;9.784;2022-12-28T13:20:17;11.20;99.90
6256;DHT22;3161;48.794;9.784;2022-12-28T13:22:46;11.30;99.90
6256;DHT22;3161;48.794;9.784;2022-12-28T13:25:32;11.20;99.90
6256;DHT22;3161;48.794;9.784;2022-12-28T13:28:01;11.20;99.90
6256;DHT22;3161;48.794;9.784;2022-12-28T13:30:30;11.20;99.90
6256;DHT22;3161;48.794;9.784;2022-12-28T13:32:59;11.10;99.90
6256;DHT22;3161;48.794;9.784;2022-12-28T13:35:31;11.10;99.90
6256;DHT22;3161;48.794;9.784;2022-12-28T13:38:08;11.10;99.90
6256;DHT22;3161;48.794;9.784;2022-12-28T13:40:32;11.00;99.90
6256;DHT22;3161;48.794;9.784;2022-12-28T13:43:20;11.00;99.90
6256;DHT22;3161;48.794;9.784;2022-12-28T13:45:44;10.90;99.90
6256;DHT22;3161;48.794;9.784;2022-12-28T13:48:12;10.90;99.90
6256;DHT22;3161;48.794;9.784;2022-12-28T13:50:40;10.90;99.90
6256;DHT22;3161;48.794;9.784;2022-12-28T13:53:11;10.90;99.90
6256;DHT22;3161;48.794;9.784;2022-12-28T13:58:17;10.90;99.90
6256;DHT22;3161;48.794;9.784;2022-12-28T14:00:43;10.80;99.90
6256;DHT22;3161;48.794;9.784;2022-12-28T14:03:12;10.80;99.90
6256;DHT22;3161;48.794;9.784;2022-12-28T14:05:45;10.60;99.90
6256;DHT22;3161;48.794;9.784;2022-12-28T14:08:14;10.50;99.90
6256;DHT22;3161;48.794;9.784;2022-12-28T14:10:54;10.50;99.90
6256;DHT22;3161;48.794;9.784;2022-12-28T14:13:22;10.40;99.90
6256;DHT22;3161;48.794;9.784;2022-12-28T14:15:50;10.30;99.90
6256;DHT22;3161;48.794;9.784;2022-12-28T14:18:18;10.30;99.90
6256;DHT22;3161;48.794;9.784;2022-12-28T14:20:53;10.20;99.90
6256;DHT22;3161;48.794;9.784;2022-12-28T14:23:26;10.10;99.90
6256;DHT22;3161;48.794;9.784;2022-12-28T14:25:51;10.10;99.90
6256;DHT22;3161;48.794;9.784;2022-12-28T14:28:39;10.00;99.90
6256;DHT22;3161;48.794;9.784;2022-12-28T14:31:11;10.00;99.90
6256;DHT22;3161;48.794;9.784;2022-12-28T14:33:58;9.90;99.90
6256;DHT22;3161;48.794;9.784;2022-12-28T14:36:29;10.00;99.90
6256;DHT22;3161;48.794;9.784;2022-12-28T14:38:58;9.90;99.90
6256;DHT22;3161;48.794;9.784;2022-12-28T14:41:38;9.90;99.90
6256;DHT22;3161;48.794;9.784;2022-12-28T14:44:20;9.80;99.90
6256;DHT22;3161;48.794;9.784;2022-12-28T14:46:45;9.80;99.90
6256;DHT22;3161;48.794;9.784;2022-12-28T14:49:32;9.80;99.90
6256;DHT22;3161;48.794;9.784;2022-12-28T14:54:56;9.60;99.90
6256;DHT22;3161;48.794;9.784;2022-12-28T14:57:43;9.60;99.90
6256;DHT22;3161;48.794;9.784;2022-12-28T15:02:51;9.40;99.90
6256;DHT22;3161;48.794;9.784;2022-12-28T15:05:39;9.30;99.90
6256;DHT22;3161;48.794;9.784;2022-12-28T15:08:08;9.20;99.90
6256;DHT22;3161;48.794;9.784;2022-12-28T15:10:38;9.10;99.90
6256;DHT22;3161;48.794;9.784;2022-12-28T15:13:06;9.00;99.90
6256;DHT22;3161;48.794;9.784;2022-12-28T15:15:34;8.90;99.90
6256;DHT22;3161;48.794;9.784;2022-12-28T15:18:02;8.80;99.90
6256;DHT22;3161;48.794;9.784;2022-12-28T15:20:30;8.70;99.90
6256;DHT22;3161;48.794;9.784;2022-12-28T15:22:58;8.70;99.90
6256;DHT22;3161;48.794;9.784;2022-12-28T15:25:25;8.60;99.90
6256;DHT22;3161;48.794;9.784;2022-12-28T15:27:53;8.50;99.90
6256;DHT22;3161;48.794;9.784;2022-12-28T15:30:21;8.40;99.90
6256;DHT22;3161;48.794;9.784;2022-12-28T15:32:48;8.40;99.90
6256;DHT22;3161;48.794;9.784;2022-12-28T15:35:16;8.30;99.90
6256;DHT22;3161;48.794;9.784;2022-12-28T15:37:44;8.30;99.90
6256;DHT22;3161;48.794;9.784;2022-12-28T15:40:12;8.20;99.90
6256;DHT22;3161;48.794;9.784;2022-12-28T15:42:44;8.20;99.90
6256;DHT22;3161;48.794;9.784;2022-12-28T15:45:12;8.10;99.90
6256;DHT22;3161;48.794;9.784;2022-12-28T15:47:40;8.10;99.90
6256;DHT22;3161;48.794;9.784;2022-12-28T15:50:08;8.10;99.90
6256;DHT22;3161;48.794;9.784;2022-12-28T15:52:36;8.00;99.90
6256;DHT22;3161;48.794;9.784;2022-12-28T15:55:04;7.90;99.90
6256;DHT22;3161;48.794;9.784;2022-12-28T15:57:32;7.90;99.90
6256;DHT22;3161;48.794;9.784;2022-12-28T16:00:00;7.80;99.90
6256;DHT22;3161;48.794;9.784;2022-12-28T16:02:27;7.70;99.90
6256;DHT22;3161;48.794;9.784;2022-12-28T16:04:55;7.70;99.90
6256;DHT22;3161;48.794;9.784;2022-12-28T16:07:22;7.60;99.90
6256;DHT22;3161;48.794;9.784;2022-12-28T16:09:50;7.50;99.90
6256;DHT22;3161;48.794;9.784;2022-12-28T16:12:17;7.40;99.90
6256;DHT22;3161;48.794;9.784;2022-12-28T16:14:45;7.40;99.90
6256;DHT22;3161;48.794;9.784;2022-12-28T16:17:14;7.30;99.90
6256;DHT22;3161;48.794;9.784;2022-12-28T16:19:41;7.20;99.90
6256;DHT22;3161;48.794;9.784;2022-12-28T16:22:09;7.20;99.90
6256;DHT22;3161;48.794;9.784;2022-12-28T16:24:37;7.10;99.90
6256;DHT22;3161;48.794;9.784;2022-12-28T16:27:04;7.00;99.90
6256;DHT22;3161;48.794;9.784;2022-12-28T16:29:32;6.90;99.90
6256;DHT22;3161;48.794;9.784;2022-12-28T16:32:00;6.80;99.90
6256;DHT22;3161;48.794;9.784;2022-12-28T16:34:28;6.70;99.90
6256;DHT22;3161;48.794;9.784;2022-12-28T16:36:57;6.60;99.90
6256;DHT22;3161;48.794;9.784;2022-12-28T16:39:27;6.60;99.90
6256;DHT22;3161;48.794;9.784;2022-12-28T16:41:56;6.50;99.90
6256;DHT22;3161;48.794;9.784;2022-12-28T16:44:25;6.40;99.90
6256;DHT22;3161;48.794;9.784;2022-12-28T16:46:55;6.30;99.90
6256;DHT22;3161;48.794;9.784;2022-12-28T16:49:25;6.30;99.90
6256;DHT22;3161;48.794;9.784;2022-12-28T16:51:52;6.20;99.90
6256;DHT22;3161;48.794;9.784;2022-12-28T16:54:22;6.20;99.90
6256;DHT22;3161;48.794;9.784;2022-12-28T16:56:51;6.20;99.90
6256;DHT22;3161;48.794;9.784;2022-12-28T16:59:21;6.10;99.90
6256;DHT22;3161;48.794;9.784;2022-12-28T17:01:51;6.10;99.90
6256;DHT22;3161;48.794;9.784;2022-12-28T17:04:20;6.00;99.90
6256;DHT22;3161;48.794;9.784;2022-12-28T17:06:51;6.00;99.90
6256;DHT22;3161;48.794;9.784;2022-12-28T17:09:19;6.00;99.90
6256;DHT22;3161;48.794;9.784;2022-12-28T17:11:48;6.00;99.90
6256;DHT22;3161;48.794;9.784;2022-12-28T17:14:16;6.00;99.90
6256;DHT22;3161;48.794;9.784;2022-12-28T17:16:44;5.90;99.90
6256;DHT22;3161;48.794;9.784;2022-12-28T17:19:11;5.90;99.90
6256;DHT22;3161;48.794;9.784;2022-12-28T17:21:39;5.90;99.90
6256;DHT22;3161;48.794;9.784;2022-12-28T17:24:06;5.90;99.90
6256;DHT22;3161;48.794;9.784;2022-12-28T17:26:35;5.80;99.90
6256;DHT22;3161;48.794;9.784;2022-12-28T17:29:02;5.80;99.90
6256;DHT22;3161;48.794;9.784;2022-12-28T17:31:30;5.80;99.90
6256;DHT22;3161;48.794;9.784;2022-12-28T17:33:58;5.80;99.90
6256;DHT22;3161;48.794;9.784;2022-12-28T17:36:26;5.80;99.90
6256;DHT22;3161;48.794;9.784;2022-12-28T17:38:53;5.80;99.90
6256;DHT22;3161;48.794;9.784;2022-12-28T17:41:23;5.80;99.90
6256;DHT22;3161;48.794;9.784;2022-12-28T17:43:57;5.80;99.90
6256;DHT22;3161;48.794;9.784;2022-12-28T17:46:27;5.80;99.90
6256;DHT22;3161;48.794;9.784;2022-12-28T17:48:56;5.80;99.90
6256;DHT22;3161;48.794;9.784;2022-12-28T17:51:25;5.80;99.90
6256;DHT22;3161;48.794;9.784;2022-12-28T17:53:55;5.70;99.90
6256;DHT22;3161;48.794;9.784;2022-12-28T17:56:23;5.70;99.90
6256;DHT22;3161;48.794;9.784;2022-12-28T17:58:55;5.70;99.90
6256;DHT22;3161;48.794;9.784;2022-12-28T18:01:24;5.70;99.90
6256;DHT22;3161;48.794;9.784;2022-12-28T18:03:53;5.70;99.90